sensor_id;sensor_type;location;lat;lon;timestamp;temperature;humidity
10472;DHT22;5283;48.876;8.962;2022-10-22T00:01:02;12.60;99.90
10472;DHT22;5283;48.876;8.962;2022-10-22T00:03:29;12.60;99.90
10472;DHT22;5283;48.876;8.962;2022-10-22T00:05:56;12.60;99.90
10472;DHT22;5283;48.876;8.962;2022-10-22T00:08:23;12.60;99.90
10472;DHT22;5283;48.876;8.962;2022-10-22T00:10:49;12.60;99.90
10472;DHT22;5283;48.876;8.962;2022-10-22T00:13:16;12.60;99.90
10472;DHT22;5283;48.876;8.962;2022-10-22T00:15:43;12.60;99.90
10472;DHT22;5283;48.876;8.962;2022-10-22T00:18:09;12.50;99.90
10472;DHT22;5283;48.876;8.962;2022-10-22T00:20:36;12.50;99.90
10472;DHT22;5283;48.876;8.962;2022-10-22T00:23:03;12.60;99.90
10472;DHT22;5283;48.876;8.962;2022-10-22T00:25:30;12.50;99.90
10472;DHT22;5283;48.876;8.962;2022-10-22T00:27:57;12.60;99.90
10472;DHT22;5283;48.876;8.962;2022-10-22T00:30:23;12.70;99.90
10472;DHT22;5283;48.876;8.962;2022-10-22T00:32:50;12.60;99.90
10472;DHT22;5283;48.876;8.962;2022-10-22T00:35:17;12.60;99.90
10472;DHT22;5283;48.876;8.962;2022-10-22T00:37:43;12.70;99.90
10472;DHT22;5283;48.876;8.962;2022-10-22T00:40:11;12.70;99.90
10472;DHT22;5283;48.876;8.962;2022-10-22T00:42:37;12.70;99.90
10472;DHT22;5283;48.876;8.962;2022-10-22T00:47:40;12.70;99.90
10472;DHT22;5283;48.876;8.962;2022-10-22T00:50:15;12.60;99.90
10472;DHT22;5283;48.876;8.962;2022-10-22T00:52:43;12.60;99.90
10472;DHT22;5283;48.876;8.962;2022-10-22T00:55:10;12.60;99.90
10472;DHT22;5283;48.876;8.962;2022-10-22T00:57:37;12.60;99.90
10472;DHT22;5283;48.876;8.962;2022-10-22T01:00:05;12.60;99.90
10472;DHT22;5283;48.876;8.962;2022-10-22T01:02:33;12.60;99.90
10472;DHT22;5283;48.876;8.962;2022-10-22T01:04:59;12.60;99.90
10472;DHT22;5283;48.876;8.962;2022-10-22T01:07:26;12.60;99.90
10472;DHT22;5283;48.876;8.962;2022-10-22T01:15:25;12.60;99.90
10472;DHT22;5283;48.876;8.962;2022-10-22T01:18:08;12.70;99.90
10472;DHT22;5283;48.876;8.962;2022-10-22T01:26:16;12.70;99.90
10472;DHT22;5283;48.876;8.962;2022-10-22T01:29:05;12.70;99.90
10472;DHT22;5283;48.876;8.962;2022-10-22T01:31:37;12.60;99.90
10472;DHT22;5283;48.876;8.962;2022-10-22T01:34:07;12.70;99.90
10472;DHT22;5283;48.876;8.962;2022-10-22T01:36:36;12.70;99.90
10472;DHT22;5283;48.876;8.962;2022-10-22T01:39:04;12.70;99.90
10472;DHT22;5283;48.876;8.962;2022-10-22T01:41:33;12.80;99.90
10472;DHT22;5283;48.876;8.962;2022-10-22T01:44:00;12.80;99.90
10472;DHT22;5283;48.876;8.962;2022-10-22T01:46:27;12.80;99.90
10472;DHT22;5283;48.876;8.962;2022-10-22T01:49:16;12.80;99.90
10472;DHT22;5283;48.876;8.962;2022-10-22T01:55:35;12.90;99.90
10472;DHT22;5283;48.876;8.962;2022-10-22T01:58:17;12.90;99.90
10472;DHT22;5283;48.876;8.962;2022-10-22T02:00:54;12.90;99.90
10472;DHT22;5283;48.876;8.962;2022-10-22T02:03:30;13.00;99.90
10472;DHT22;5283;48.876;8.962;2022-10-22T02:06:03;12.90;99.90
10472;DHT22;5283;48.876;8.962;2022-10-22T02:08:32;12.80;99.90
10472;DHT22;5283;48.876;8.962;2022-10-22T02:11:01;12.80;99.90
10472;DHT22;5283;48.876;8.962;2022-10-22T02:13:47;12.80;99.90
10472;DHT22;5283;48.876;8.962;2022-10-22T02:16:22;12.80;99.90
10472;DHT22;5283;48.876;8.962;2022-10-22T02:18:52;12.70;99.90
10472;DHT22;5283;48.876;8.962;2022-10-22T02:21:21;12.70;99.90
10472;DHT22;5283;48.876;8.962;2022-10-22T02:23:48;12.60;99.90
10472;DHT22;5283;48.876;8.962;2022-10-22T02:26:28;12.60;99.90
10472;DHT22;5283;48.876;8.962;2022-10-22T02:29:09;12.60;99.90
10472;DHT22;5283;48.876;8.962;2022-10-22T02:31:39;12.50;99.90
10472;DHT22;5283;48.876;8.962;2022-10-22T02:34:09;12.50;99.90
10472;DHT22;5283;48.876;8.962;2022-10-22T02:36:38;12.50;99.90
10472;DHT22;5283;48.876;8.962;2022-10-22T02:39:07;12.60;99.90
10472;DHT22;5283;48.876;8.962;2022-10-22T02:41:35;12.60;99.90
10472;DHT22;5283;48.876;8.962;2022-10-22T02:44:07;12.50;99.90
10472;DHT22;5283;48.876;8.962;2022-10-22T02:46:34;12.50;99.90
10472;DHT22;5283;48.876;8.962;2022-10-22T02:49:01;12.50;99.90
10472;DHT22;5283;48.876;8.962;2022-10-22T02:51:28;12.40;99.90
10472;DHT22;5283;48.876;8.962;2022-10-22T02:53:54;12.30;99.90
10472;DHT22;5283;48.876;8.962;2022-10-22T02:56:21;12.20;99.90
10472;DHT22;5283;48.876;8.962;2022-10-22T02:58:48;12.20;99.90
10472;DHT22;5283;48.876;8.962;2022-10-22T03:01:14;12.20;99.90
10472;DHT22;5283;48.876;8.962;2022-10-22T03:03:41;12.20;99.90
10472;DHT22;5283;48.876;8.962;2022-10-22T03:06:08;12.20;99.90
10472;DHT22;5283;48.876;8.962;2022-10-22T03:08:35;12.10;99.90
10472;DHT22;5283;48.876;8.962;2022-10-22T03:11:01;12.10;99.90
10472;DHT22;5283;48.876;8.962;2022-10-22T03:13:28;12.10;99.90
10472;DHT22;5283;48.876;8.962;2022-10-22T03:15:55;12.10;99.90
10472;DHT22;5283;48.876;8.962;2022-10-22T03:18:21;12.10;99.90
10472;DHT22;5283;48.876;8.962;2022-10-22T03:20:48;12.00;99.90
10472;DHT22;5283;48.876;8.962;2022-10-22T03:23:17;12.00;99.90
10472;DHT22;5283;48.876;8.962;2022-10-22T03:25:45;12.00;99.90
10472;DHT22;5283;48.876;8.962;2022-10-22T03:28:14;12.00;99.90
10472;DHT22;5283;48.876;8.962;2022-10-22T03:30:42;12.00;99.90
10472;DHT22;5283;48.876;8.962;2022-10-22T03:33:09;12.00;99.90
10472;DHT22;5283;48.876;8.962;2022-10-22T03:35:44;12.00;99.90
10472;DHT22;5283;48.876;8.962;2022-10-22T03:38:12;11.90;99.90
10472;DHT22;5283;48.876;8.962;2022-10-22T03:40:41;11.90;99.90
10472;DHT22;5283;48.876;8.962;2022-10-22T03:43:08;11.90;99.90
10472;DHT22;5283;48.876;8.962;2022-10-22T03:45:35;11.80;99.90
10472;DHT22;5283;48.876;8.962;2022-10-22T03:48:01;11.80;99.90
10472;DHT22;5283;48.876;8.962;2022-10-22T03:50:28;11.90;99.90
10472;DHT22;5283;48.876;8.962;2022-10-22T03:52:55;11.90;99.90
10472;DHT22;5283;48.876;8.962;2022-10-22T03:55:24;11.90;99.90
10472;DHT22;5283;48.876;8.962;2022-10-22T03:57:50;11.90;99.90
10472;DHT22;5283;48.876;8.962;2022-10-22T04:00:17;11.90;99.90
10472;DHT22;5283;48.876;8.962;2022-10-22T04:02:44;12.10;99.90
10472;DHT22;5283;48.876;8.962;2022-10-22T04:05:11;12.20;99.90
10472;DHT22;5283;48.876;8.962;2022-10-22T04:07:42;12.40;99.90
10472;DHT22;5283;48.876;8.962;2022-10-22T04:10:09;12.50;99.90
10472;DHT22;5283;48.876;8.962;2022-10-22T04:12:36;12.50;99.90
10472;DHT22;5283;48.876;8.962;2022-10-22T04:15:03;12.60;99.90
10472;DHT22;5283;48.876;8.962;2022-10-22T04:17:35;12.60;99.90
10472;DHT22;5283;48.876;8.962;2022-10-22T04:20:02;12.50;99.90
10472;DHT22;5283;48.876;8.962;2022-10-22T04:22:32;12.60;99.90
10472;DHT22;5283;48.876;8.962;2022-10-22T04:24:59;12.60;99.90
10472;DHT22;5283;48.876;8.962;2022-10-22T04:27:29;12.70;99.90
10472;DHT22;5283;48.876;8.962;2022-10-22T04:29:56;12.70;99.90
10472;DHT22;5283;48.876;8.962;2022-10-22T04:32:24;12.90;99.90
10472;DHT22;5283;48.876;8.962;2022-10-22T04:34:50;12.90;99.90
10472;DHT22;5283;48.876;8.962;2022-10-22T04:37:17;12.80;99.90
10472;DHT22;5283;48.876;8.962;2022-10-22T04:39:44;12.90;99.90
10472;DHT22;5283;48.876;8.962;2022-10-22T04:42:11;12.90;99.90
10472;DHT22;5283;48.876;8.962;2022-10-22T04:44:38;13.00;99.90
10472;DHT22;5283;48.876;8.962;2022-10-22T04:47:04;13.00;99.90
10472;DHT22;5283;48.876;8.962;2022-10-22T04:49:31;13.10;99.90
10472;DHT22;5283;48.876;8.962;2022-10-22T04:51:57;13.10;99.90
10472;DHT22;5283;48.876;8.962;2022-10-22T04:54:24;13.10;99.90
10472;DHT22;5283;48.876;8.962;2022-10-22T04:56:52;13.10;99.90
10472;DHT22;5283;48.876;8.962;2022-10-22T04:59:18;13.10;99.90
10472;DHT22;5283;48.876;8.962;2022-10-22T05:01:45;13.00;99.90
10472;DHT22;5283;48.876;8.962;2022-10-22T05:04:15;13.00;99.90
10472;DHT22;5283;48.876;8.962;2022-10-22T05:06:42;13.00;99.90
10472;DHT22;5283;48.876;8.962;2022-10-22T05:09:14;12.90;99.90
10472;DHT22;5283;48.876;8.962;2022-10-22T05:11:44;13.00;99.90
10472;DHT22;5283;48.876;8.962;2022-10-22T05:14:16;12.90;99.90
10472;DHT22;5283;48.876;8.962;2022-10-22T05:16:42;12.80;99.90
10472;DHT22;5283;48.876;8.962;2022-10-22T05:19:25;12.80;99.90
10472;DHT22;5283;48.876;8.962;2022-10-22T05:21:53;12.80;99.90
10472;DHT22;5283;48.876;8.962;2022-10-22T05:24:21;12.80;99.90
10472;DHT22;5283;48.876;8.962;2022-10-22T05:26:52;12.80;99.90
10472;DHT22;5283;48.876;8.962;2022-10-22T05:29:19;12.80;99.90
10472;DHT22;5283;48.876;8.962;2022-10-22T05:31:46;12.80;99.90
10472;DHT22;5283;48.876;8.962;2022-10-22T05:34:14;12.80;99.90
10472;DHT22;5283;48.876;8.962;2022-10-22T05:36:41;12.80;99.90
10472;DHT22;5283;48.876;8.962;2022-10-22T05:39:07;12.90;99.90
10472;DHT22;5283;48.876;8.962;2022-10-22T05:41:35;12.90;99.90
10472;DHT22;5283;48.876;8.962;2022-10-22T05:44:02;12.90;99.90
10472;DHT22;5283;48.876;8.962;2022-10-22T05:46:33;12.80;99.90
10472;DHT22;5283;48.876;8.962;2022-10-22T05:49:02;12.80;99.90
10472;DHT22;5283;48.876;8.962;2022-10-22T05:51:30;12.80;99.90
10472;DHT22;5283;48.876;8.962;2022-10-22T05:54:00;12.70;99.90
10472;DHT22;5283;48.876;8.962;2022-10-22T05:56:28;12.70;99.90
10472;DHT22;5283;48.876;8.962;2022-10-22T05:58:57;12.60;99.90
10472;DHT22;5283;48.876;8.962;2022-10-22T06:01:29;12.60;99.90
10472;DHT22;5283;48.876;8.962;2022-10-22T06:03:58;12.60;99.90
10472;DHT22;5283;48.876;8.962;2022-10-22T06:06:49;12.60;99.90
10472;DHT22;5283;48.876;8.962;2022-10-22T06:09:25;12.60;99.90
10472;DHT22;5283;48.876;8.962;2022-10-22T06:11:53;12.60;99.90
10472;DHT22;5283;48.876;8.962;2022-10-22T06:14:20;12.50;99.90
10472;DHT22;5283;48.876;8.962;2022-10-22T06:16:47;12.50;99.90
10472;DHT22;5283;48.876;8.962;2022-10-22T06:19:16;12.50;99.90
10472;DHT22;5283;48.876;8.962;2022-10-22T06:21:43;12.50;99.90
10472;DHT22;5283;48.876;8.962;2022-10-22T06:24:11;12.50;99.90
10472;DHT22;5283;48.876;8.962;2022-10-22T06:26:38;12.60;99.90
10472;DHT22;5283;48.876;8.962;2022-10-22T06:29:05;12.70;99.90
10472;DHT22;5283;48.876;8.962;2022-10-22T06:31:32;12.80;99.90
10472;DHT22;5283;48.876;8.962;2022-10-22T06:34:04;12.80;99.90
10472;DHT22;5283;48.876;8.962;2022-10-22T06:36:31;13.00;99.90
10472;DHT22;5283;48.876;8.962;2022-10-22T06:38:57;13.00;99.90
10472;DHT22;5283;48.876;8.962;2022-10-22T06:41:24;13.10;99.90
10472;DHT22;5283;48.876;8.962;2022-10-22T06:43:52;13.10;99.90
10472;DHT22;5283;48.876;8.962;2022-10-22T06:46:20;13.20;99.90
10472;DHT22;5283;48.876;8.962;2022-10-22T06:48:58;13.20;99.90
10472;DHT22;5283;48.876;8.962;2022-10-22T06:51:26;13.20;99.90
10472;DHT22;5283;48.876;8.962;2022-10-22T06:53:54;13.20;99.90
10472;DHT22;5283;48.876;8.962;2022-10-22T06:56:23;13.30;99.90
10472;DHT22;5283;48.876;8.962;2022-10-22T06:58:52;13.30;99.90
10472;DHT22;5283;48.876;8.962;2022-10-22T07:01:23;13.30;99.90
10472;DHT22;5283;48.876;8.962;2022-10-22T07:03:51;13.40;99.90
10472;DHT22;5283;48.876;8.962;2022-10-22T07:06:18;13.40;99.90
10472;DHT22;5283;48.876;8.962;2022-10-22T07:08:46;13.50;99.90
10472;DHT22;5283;48.876;8.962;2022-10-22T07:11:21;13.50;99.90
10472;DHT22;5283;48.876;8.962;2022-10-22T07:13:48;13.50;99.90
10472;DHT22;5283;48.876;8.962;2022-10-22T07:16:16;13.60;99.90
10472;DHT22;5283;48.876;8.962;2022-10-22T07:18:44;13.60;99.90
10472;DHT22;5283;48.876;8.962;2022-10-22T07:21:13;13.70;99.90
10472;DHT22;5283;48.876;8.962;2022-10-22T07:23:40;13.90;99.90
10472;DHT22;5283;48.876;8.962;2022-10-22T07:26:07;14.00;99.90
10472;DHT22;5283;48.876;8.962;2022-10-22T07:28:35;14.10;99.90
10472;DHT22;5283;48.876;8.962;2022-10-22T07:31:03;14.20;99.90
10472;DHT22;5283;48.876;8.962;2022-10-22T07:33:30;14.30;99.90
10472;DHT22;5283;48.876;8.962;2022-10-22T07:35:57;14.30;99.90
10472;DHT22;5283;48.876;8.962;2022-10-22T07:38:26;14.30;99.90
10472;DHT22;5283;48.876;8.962;2022-10-22T07:40:53;14.40;99.90
10472;DHT22;5283;48.876;8.962;2022-10-22T07:43:20;14.40;99.90
10472;DHT22;5283;48.876;8.962;2022-10-22T07:45:46;14.30;99.90
10472;DHT22;5283;48.876;8.962;2022-10-22T07:48:13;14.20;99.90
10472;DHT22;5283;48.876;8.962;2022-10-22T07:50:40;14.30;99.90
10472;DHT22;5283;48.876;8.962;2022-10-22T07:53:06;14.30;99.90
10472;DHT22;5283;48.876;8.962;2022-10-22T07:55:33;14.40;99.90
10472;DHT22;5283;48.876;8.962;2022-10-22T07:58:00;14.50;99.90
10472;DHT22;5283;48.876;8.962;2022-10-22T08:00:27;14.60;99.90
10472;DHT22;5283;48.876;8.962;2022-10-22T08:02:54;14.60;99.90
10472;DHT22;5283;48.876;8.962;2022-10-22T08:05:20;14.60;99.90
10472;DHT22;5283;48.876;8.962;2022-10-22T08:07:47;14.60;99.90
10472;DHT22;5283;48.876;8.962;2022-10-22T08:10:14;14.50;99.90
10472;DHT22;5283;48.876;8.962;2022-10-22T08:12:40;14.40;99.90
10472;DHT22;5283;48.876;8.962;2022-10-22T08:15:08;14.30;99.90
10472;DHT22;5283;48.876;8.962;2022-10-22T08:17:35;14.30;99.90
10472;DHT22;5283;48.876;8.962;2022-10-22T08:20:02;14.30;99.90
10472;DHT22;5283;48.876;8.962;2022-10-22T08:22:29;14.30;99.90
10472;DHT22;5283;48.876;8.962;2022-10-22T08:24:56;14.30;99.90
10472;DHT22;5283;48.876;8.962;2022-10-22T08:27:22;14.30;99.90
10472;DHT22;5283;48.876;8.962;2022-10-22T08:29:49;14.40;99.90
10472;DHT22;5283;48.876;8.962;2022-10-22T08:32:16;14.50;99.90
10472;DHT22;5283;48.876;8.962;2022-10-22T08:34:42;14.60;99.90
10472;DHT22;5283;48.876;8.962;2022-10-22T08:37:09;14.70;99.90
10472;DHT22;5283;48.876;8.962;2022-10-22T08:39:40;14.90;99.90
10472;DHT22;5283;48.876;8.962;2022-10-22T08:45:29;15.10;99.90
10472;DHT22;5283;48.876;8.962;2022-10-22T08:48:59;15.30;99.90
10472;DHT22;5283;48.876;8.962;2022-10-22T08:50:56;15.40;99.90
10472;DHT22;5283;48.876;8.962;2022-10-22T08:56:22;15.70;99.90
10472;DHT22;5283;48.876;8.962;2022-10-22T08:59:00;15.90;99.90
10472;DHT22;5283;48.876;8.962;2022-10-22T09:01:33;16.00;99.90
10472;DHT22;5283;48.876;8.962;2022-10-22T09:04:23;16.20;99.90
10472;DHT22;5283;48.876;8.962;2022-10-22T09:06:53;16.40;99.90
10472;DHT22;5283;48.876;8.962;2022-10-22T09:09:21;16.50;99.90
10472;DHT22;5283;48.876;8.962;2022-10-22T09:11:50;16.40;99.90
10472;DHT22;5283;48.876;8.962;2022-10-22T09:14:24;16.50;99.90
10472;DHT22;5283;48.876;8.962;2022-10-22T09:20:03;16.80;99.90
10472;DHT22;5283;48.876;8.962;2022-10-22T09:22:49;17.00;99.90
10472;DHT22;5283;48.876;8.962;2022-10-22T09:25:20;17.10;99.90
10472;DHT22;5283;48.876;8.962;2022-10-22T09:27:49;17.10;99.90
10472;DHT22;5283;48.876;8.962;2022-10-22T09:30:21;17.20;99.90
10472;DHT22;5283;48.876;8.962;2022-10-22T09:33:05;17.30;99.90
10472;DHT22;5283;48.876;8.962;2022-10-22T09:35:50;17.50;99.90
10472;DHT22;5283;48.876;8.962;2022-10-22T09:38:20;17.60;99.90
10472;DHT22;5283;48.876;8.962;2022-10-22T09:40:51;17.60;99.90
10472;DHT22;5283;48.876;8.962;2022-10-22T09:43:19;17.70;99.90
10472;DHT22;5283;48.876;8.962;2022-10-22T09:45:47;17.60;99.90
10472;DHT22;5283;48.876;8.962;2022-10-22T09:50:46;17.60;99.90
10472;DHT22;5283;48.876;8.962;2022-10-22T09:53:20;17.70;99.90
10472;DHT22;5283;48.876;8.962;2022-10-22T09:55:59;17.80;99.90
10472;DHT22;5283;48.876;8.962;2022-10-22T09:58:26;17.80;99.90
10472;DHT22;5283;48.876;8.962;2022-10-22T10:00:59;17.90;99.90
10472;DHT22;5283;48.876;8.962;2022-10-22T10:03:30;18.00;99.90
10472;DHT22;5283;48.876;8.962;2022-10-22T10:05:58;18.00;99.90
10472;DHT22;5283;48.876;8.962;2022-10-22T10:08:25;18.00;99.90
10472;DHT22;5283;48.876;8.962;2022-10-22T10:11:23;18.00;99.90
10472;DHT22;5283;48.876;8.962;2022-10-22T10:14:00;18.20;99.90
10472;DHT22;5283;48.876;8.962;2022-10-22T10:19:39;18.60;99.90
10472;DHT22;5283;48.876;8.962;2022-10-22T10:27:35;18.80;99.90
10472;DHT22;5283;48.876;8.962;2022-10-22T10:30:21;18.70;99.90
10472;DHT22;5283;48.876;8.962;2022-10-22T10:33:23;18.50;99.90
10472;DHT22;5283;48.876;8.962;2022-10-22T10:39:00;18.00;99.90
10472;DHT22;5283;48.876;8.962;2022-10-22T10:50:35;17.90;99.90
10472;DHT22;5283;48.876;8.962;2022-10-22T10:56:02;17.70;99.90
10472;DHT22;5283;48.876;8.962;2022-10-22T10:58:40;17.50;99.90
10472;DHT22;5283;48.876;8.962;2022-10-22T11:01:23;17.50;99.90
10472;DHT22;5283;48.876;8.962;2022-10-22T11:06:29;17.70;99.90
10472;DHT22;5283;48.876;8.962;2022-10-22T11:09:07;17.70;99.90
10472;DHT22;5283;48.876;8.962;2022-10-22T11:14:16;17.70;99.90
10472;DHT22;5283;48.876;8.962;2022-10-22T11:16:52;17.80;99.90
10472;DHT22;5283;48.876;8.962;2022-10-22T11:19:27;17.90;99.90
10472;DHT22;5283;48.876;8.962;2022-10-22T11:22:20;17.90;99.90
10472;DHT22;5283;48.876;8.962;2022-10-22T11:24:58;17.90;99.90
10472;DHT22;5283;48.876;8.962;2022-10-22T11:27:39;18.00;99.90
10472;DHT22;5283;48.876;8.962;2022-10-22T11:30:13;18.00;99.90
10472;DHT22;5283;48.876;8.962;2022-10-22T11:32:43;18.00;99.90
10472;DHT22;5283;48.876;8.962;2022-10-22T11:35:17;18.00;99.90
10472;DHT22;5283;48.876;8.962;2022-10-22T11:37:48;18.10;99.90
10472;DHT22;5283;48.876;8.962;2022-10-22T11:40:19;18.10;99.90
10472;DHT22;5283;48.876;8.962;2022-10-22T11:42:51;18.00;99.90
10472;DHT22;5283;48.876;8.962;2022-10-22T11:45:26;17.90;99.90
10472;DHT22;5283;48.876;8.962;2022-10-22T11:50:45;18.20;99.90
10472;DHT22;5283;48.876;8.962;2022-10-22T12:00:54;18.00;99.90
10472;DHT22;5283;48.876;8.962;2022-10-22T12:08:53;17.90;99.90
10472;DHT22;5283;48.876;8.962;2022-10-22T12:11:45;18.00;99.90
10472;DHT22;5283;48.876;8.962;2022-10-22T12:14:24;18.00;99.90
10472;DHT22;5283;48.876;8.962;2022-10-22T12:17:10;17.90;99.90
10472;DHT22;5283;48.876;8.962;2022-10-22T12:19:59;17.90;99.90
10472;DHT22;5283;48.876;8.962;2022-10-22T12:22:29;18.00;99.90
10472;DHT22;5283;48.876;8.962;2022-10-22T12:25:00;18.10;99.90
10472;DHT22;5283;48.876;8.962;2022-10-22T12:27:36;18.20;99.90
10472;DHT22;5283;48.876;8.962;2022-10-22T12:30:17;18.30;99.90
10472;DHT22;5283;48.876;8.962;2022-10-22T12:32:44;18.50;99.90
10472;DHT22;5283;48.876;8.962;2022-10-22T12:35:19;18.60;99.90
10472;DHT22;5283;48.876;8.962;2022-10-22T12:37:51;18.60;99.90
10472;DHT22;5283;48.876;8.962;2022-10-22T12:40:24;18.70;99.90
10472;DHT22;5283;48.876;8.962;2022-10-22T12:42:57;18.70;99.90
10472;DHT22;5283;48.876;8.962;2022-10-22T12:45:29;18.80;99.90
10472;DHT22;5283;48.876;8.962;2022-10-22T12:47:58;18.80;99.90
10472;DHT22;5283;48.876;8.962;2022-10-22T12:50:34;18.90;99.90
10472;DHT22;5283;48.876;8.962;2022-10-22T12:53:06;18.90;99.90
10472;DHT22;5283;48.876;8.962;2022-10-22T12:55:38;19.00;99.90
10472;DHT22;5283;48.876;8.962;2022-10-22T12:58:06;19.00;99.90
10472;DHT22;5283;48.876;8.962;2022-10-22T13:00:34;19.00;99.90
10472;DHT22;5283;48.876;8.962;2022-10-22T13:03:04;19.10;99.90
10472;DHT22;5283;48.876;8.962;2022-10-22T13:05:32;19.10;99.90
10472;DHT22;5283;48.876;8.962;2022-10-22T13:08:16;19.20;99.90
10472;DHT22;5283;48.876;8.962;2022-10-22T13:10:52;19.30;99.90
10472;DHT22;5283;48.876;8.962;2022-10-22T13:16:24;19.40;99.90
10472;DHT22;5283;48.876;8.962;2022-10-22T13:18:53;19.40;99.90
10472;DHT22;5283;48.876;8.962;2022-10-22T13:21:26;19.50;99.90
10472;DHT22;5283;48.876;8.962;2022-10-22T13:23:59;19.80;99.90
10472;DHT22;5283;48.876;8.962;2022-10-22T13:26:31;20.00;99.90
10472;DHT22;5283;48.876;8.962;2022-10-22T13:28:59;20.40;99.90
10472;DHT22;5283;48.876;8.962;2022-10-22T13:31:30;20.70;99.90
10472;DHT22;5283;48.876;8.962;2022-10-22T13:34:01;21.00;99.90
10472;DHT22;5283;48.876;8.962;2022-10-22T13:36:30;21.20;99.90
10472;DHT22;5283;48.876;8.962;2022-10-22T13:38:57;21.50;99.90
10472;DHT22;5283;48.876;8.962;2022-10-22T13:41:29;21.90;99.90
10472;DHT22;5283;48.876;8.962;2022-10-22T13:43:59;22.00;99.90
10472;DHT22;5283;48.876;8.962;2022-10-22T13:46:26;22.00;99.90
10472;DHT22;5283;48.876;8.962;2022-10-22T13:48:54;22.00;99.90
10472;DHT22;5283;48.876;8.962;2022-10-22T13:51:31;22.10;99.90
10472;DHT22;5283;48.876;8.962;2022-10-22T13:54:00;22.20;99.90
10472;DHT22;5283;48.876;8.962;2022-10-22T13:56:28;22.60;99.90
10472;DHT22;5283;48.876;8.962;2022-10-22T13:58:55;23.10;99.90
10472;DHT22;5283;48.876;8.962;2022-10-22T14:01:24;23.50;99.90
10472;DHT22;5283;48.876;8.962;2022-10-22T14:03:54;23.70;99.90
10472;DHT22;5283;48.876;8.962;2022-10-22T14:06:25;23.50;99.90
10472;DHT22;5283;48.876;8.962;2022-10-22T14:08:57;23.20;99.90
10472;DHT22;5283;48.876;8.962;2022-10-22T14:11:25;22.80;99.90
10472;DHT22;5283;48.876;8.962;2022-10-22T14:13:58;22.70;99.90
10472;DHT22;5283;48.876;8.962;2022-10-22T14:16:26;22.60;99.90
10472;DHT22;5283;48.876;8.962;2022-10-22T14:18:54;22.40;99.90
10472;DHT22;5283;48.876;8.962;2022-10-22T14:21:21;22.10;99.90
10472;DHT22;5283;48.876;8.962;2022-10-22T14:23:48;21.90;99.90
10472;DHT22;5283;48.876;8.962;2022-10-22T14:26:26;21.60;99.90
10472;DHT22;5283;48.876;8.962;2022-10-22T14:28:55;21.30;99.90
10472;DHT22;5283;48.876;8.962;2022-10-22T14:31:34;21.00;99.90
10472;DHT22;5283;48.876;8.962;2022-10-22T14:34:02;20.80;99.90
10472;DHT22;5283;48.876;8.962;2022-10-22T14:36:29;20.80;99.90
10472;DHT22;5283;48.876;8.962;2022-10-22T14:38:55;20.90;99.90
10472;DHT22;5283;48.876;8.962;2022-10-22T14:41:24;21.00;99.90
10472;DHT22;5283;48.876;8.962;2022-10-22T14:43:51;20.90;99.90
10472;DHT22;5283;48.876;8.962;2022-10-22T14:46:18;20.70;99.90
10472;DHT22;5283;48.876;8.962;2022-10-22T14:48:45;20.40;99.90
10472;DHT22;5283;48.876;8.962;2022-10-22T14:51:15;20.20;99.90
10472;DHT22;5283;48.876;8.962;2022-10-22T14:53:42;20.10;99.90
10472;DHT22;5283;48.876;8.962;2022-10-22T14:56:14;20.00;99.90
10472;DHT22;5283;48.876;8.962;2022-10-22T14:58:41;20.20;99.90
10472;DHT22;5283;48.876;8.962;2022-10-22T15:01:08;20.30;99.90
10472;DHT22;5283;48.876;8.962;2022-10-22T15:03:35;20.20;99.90
10472;DHT22;5283;48.876;8.962;2022-10-22T15:06:02;20.20;99.90
10472;DHT22;5283;48.876;8.962;2022-10-22T15:08:29;20.30;99.90
10472;DHT22;5283;48.876;8.962;2022-10-22T15:11:06;20.40;99.90
10472;DHT22;5283;48.876;8.962;2022-10-22T15:13:33;20.40;99.90
10472;DHT22;5283;48.876;8.962;2022-10-22T15:16:04;20.20;99.90
10472;DHT22;5283;48.876;8.962;2022-10-22T15:18:32;20.20;99.90
10472;DHT22;5283;48.876;8.962;2022-10-22T15:21:01;20.00;99.90
10472;DHT22;5283;48.876;8.962;2022-10-22T15:23:29;20.00;99.90
10472;DHT22;5283;48.876;8.962;2022-10-22T15:25:55;19.80;99.90
10472;DHT22;5283;48.876;8.962;2022-10-22T15:28:23;19.60;99.90
10472;DHT22;5283;48.876;8.962;2022-10-22T15:30:54;19.10;99.90
10472;DHT22;5283;48.876;8.962;2022-10-22T15:33:22;18.50;99.90
10472;DHT22;5283;48.876;8.962;2022-10-22T15:35:48;18.00;99.90
10472;DHT22;5283;48.876;8.962;2022-10-22T15:38:15;17.60;99.90
10472;DHT22;5283;48.876;8.962;2022-10-22T15:40:42;17.30;99.90
10472;DHT22;5283;48.876;8.962;2022-10-22T15:43:09;17.00;99.90
10472;DHT22;5283;48.876;8.962;2022-10-22T15:45:36;16.50;99.90
10472;DHT22;5283;48.876;8.962;2022-10-22T15:48:03;16.30;99.90
10472;DHT22;5283;48.876;8.962;2022-10-22T15:50:30;16.10;99.90
10472;DHT22;5283;48.876;8.962;2022-10-22T15:52:57;15.80;99.90
10472;DHT22;5283;48.876;8.962;2022-10-22T15:55:24;15.50;99.90
10472;DHT22;5283;48.876;8.962;2022-10-22T15:57:53;15.30;99.90
10472;DHT22;5283;48.876;8.962;2022-10-22T16:00:21;15.20;99.90
10472;DHT22;5283;48.876;8.962;2022-10-22T16:02:48;15.00;99.90
10472;DHT22;5283;48.876;8.962;2022-10-22T16:05:15;14.80;99.90
10472;DHT22;5283;48.876;8.962;2022-10-22T16:07:41;14.70;99.90
10472;DHT22;5283;48.876;8.962;2022-10-22T16:10:08;14.60;99.90
10472;DHT22;5283;48.876;8.962;2022-10-22T16:12:38;14.50;99.90
10472;DHT22;5283;48.876;8.962;2022-10-22T16:15:07;14.40;99.90
10472;DHT22;5283;48.876;8.962;2022-10-22T16:17:34;14.20;99.90
10472;DHT22;5283;48.876;8.962;2022-10-22T16:20:01;14.00;99.90
10472;DHT22;5283;48.876;8.962;2022-10-22T16:22:27;13.80;99.90
10472;DHT22;5283;48.876;8.962;2022-10-22T16:24:54;13.50;99.90
10472;DHT22;5283;48.876;8.962;2022-10-22T16:27:21;13.40;99.90
10472;DHT22;5283;48.876;8.962;2022-10-22T16:29:47;13.30;99.90
10472;DHT22;5283;48.876;8.962;2022-10-22T16:32:14;13.10;99.90
10472;DHT22;5283;48.876;8.962;2022-10-22T16:34:42;13.00;99.90
10472;DHT22;5283;48.876;8.962;2022-10-22T16:37:09;12.90;99.90
10472;DHT22;5283;48.876;8.962;2022-10-22T16:39:35;12.80;99.90
10472;DHT22;5283;48.876;8.962;2022-10-22T16:42:02;12.70;99.90
10472;DHT22;5283;48.876;8.962;2022-10-22T16:44:29;12.60;99.90
10472;DHT22;5283;48.876;8.962;2022-10-22T16:46:56;12.60;99.90
10472;DHT22;5283;48.876;8.962;2022-10-22T16:49:22;12.40;99.90
10472;DHT22;5283;48.876;8.962;2022-10-22T16:51:49;12.30;99.90
10472;DHT22;5283;48.876;8.962;2022-10-22T16:54:16;12.20;99.90
10472;DHT22;5283;48.876;8.962;2022-10-22T16:56:43;12.00;99.90
10472;DHT22;5283;48.876;8.962;2022-10-22T16:59:09;11.90;99.90
10472;DHT22;5283;48.876;8.962;2022-10-22T17:01:36;11.80;99.90
10472;DHT22;5283;48.876;8.962;2022-10-22T17:04:06;11.80;99.90
10472;DHT22;5283;48.876;8.962;2022-10-22T17:06:32;11.60;99.90
10472;DHT22;5283;48.876;8.962;2022-10-22T17:08:59;11.60;99.90
10472;DHT22;5283;48.876;8.962;2022-10-22T17:11:26;11.50;99.90
10472;DHT22;5283;48.876;8.962;2022-10-22T17:13:55;11.40;99.90
10472;DHT22;5283;48.876;8.962;2022-10-22T17:16:23;11.40;99.90
10472;DHT22;5283;48.876;8.962;2022-10-22T17:18:52;11.30;99.90